Flight Track Log - Related Links

Times and Time Zones

All times are in EDT time to prevent confusion due to time zone crossing. See the RPA3253 flight status page for this flight to view local times or setup timezone preferences in your user account.

Time Position Orientation Groundspeed Altitude Reporting Facility
EDT Latitude Longitude Course Direction KTS MPH feet Rate Location/Type
Tue 22:47:08 35.1869 -80.9511 251° West 173 199 1,500  Level Atlanta Center
Tue 22:47:50 35.1494 -80.9525 182° South 194 223 2,200 1,689 Climbing Atlanta Center
Tue 22:48:51 35.1239 -81.0169 244° Southwest 252 290 4,400 2,294 Climbing Atlanta Center
Tue 22:49:00 35.2667 -81.1784 270° West  Level FlightAware Approximate
Tue 22:49:32 35.1172 -81.0781 262° West 254 292 6,100  Level Atlanta Center
Tue 22:50:00 35.1976 -81.2463 199° South  Level FlightAware Approximate
Tue 22:50:32 35.1025 -81.1675 259° West 279 321 8,600  Level Atlanta Center
Tue 22:51:00 35.0970 -81.2799 192° South  Level FlightAware Approximate
Tue 22:51:32 35.0922 -81.2592 262° West 284 327 10,800  Level Atlanta Center
Tue 22:52:00 35.0535 -81.3877 251° West  Level FlightAware Approximate
Tue 22:52:32 35.0692 -81.3489 253° West 284 327 13,200  Level Atlanta Center
Tue 22:53:32 35.0458 -81.4256 250° West 284 327 15,200 2,050 Climbing Atlanta Center
Tue 22:54:32 35.0206 -81.5178 252° West 289 333 17,300 2,150 Climbing Atlanta Center
Tue 22:55:32 34.9892 -81.6175 249° West 300 345 19,500 2,050 Climbing Atlanta Center
Tue 22:56:32 34.9597 -81.7122 249° West 300 345 21,400 1,800 Climbing Atlanta Center
Tue 22:57:32 34.9281 -81.8144 249° West 314 361 23,100 1,100 Climbing Atlanta Center
Tue 22:58:32 34.8697 -81.9222 237° Southwest 332 382 23,600 900 Climbing Atlanta Center
Tue 22:59:32 34.8147 -82.0097 233° Southwest 352 405 24,900 1,300 Climbing Atlanta Center
Tue 23:00:32 34.7558 -82.1172 236° Southwest 372 428 26,200 1,500 Climbing Atlanta Center
Tue 23:01:32 34.6908 -82.2350 236° Southwest 388 447 27,900 1,350 Climbing Atlanta Center
Tue 23:02:32 34.6297 -82.3372 234° Southwest 388 447 28,900 1,000 Climbing Atlanta Center
Tue 23:03:32 34.5686 -82.4469 236° Southwest 388 447 29,900 900 Climbing Atlanta Center
Tue 23:04:32 34.5053 -82.5567 235° Southwest 393 452 30,700 750 Climbing Atlanta Center
Tue 23:05:32 34.4356 -82.6636 232° Southwest 399 459 31,400 800 Climbing Atlanta Center
Tue 23:06:32 34.3722 -82.7778 236° Southwest 404 465 32,300 850 Climbing Atlanta Center
Tue 23:07:32 34.3106 -82.8869 236° Southwest 404 465 33,100 900 Climbing Atlanta Center
Tue 23:08:32 34.2469 -82.9983 235° Southwest 404 465 34,100 950 Climbing Atlanta Center
Tue 23:09:32 34.1831 -83.1047 234° Southwest 404 465 35,000 800 Climbing Atlanta Center
Tue 23:10:32 34.1233 -83.2133 236° Southwest 404 465 35,700 500 Climbing Atlanta Center
Tue 23:11:32 34.0614 -83.3217 235° Southwest 404 465 36,000 150 Climbing Atlanta Center
Tue 23:12:32 34.0036 -83.4175 234° Southwest 404 465 36,000  Level Atlanta Center
Tue 23:13:32 33.9392 -83.5306 236° Southwest 404 465 36,000  Level Atlanta Center
Tue 23:14:32 33.8750 -83.6383 234° Southwest 404 465 36,000  Level Atlanta Center
Tue 23:15:32 33.8128 -83.7464 235° Southwest 404 465 36,000  Level Atlanta Center
Tue 23:16:32 33.7481 -83.8614 236° Southwest 411 473 36,000  Level Atlanta Center
Tue 23:17:32 33.6772 -83.9789 234° Southwest 411 473 36,000  Level Atlanta Center
Tue 23:18:32 33.6106 -84.0911 235° Southwest 405 466 36,000  Level Atlanta Center
Tue 23:19:32 33.5458 -84.2033 235° Southwest 405 466 36,000  Level Atlanta Center
Tue 23:20:32 33.4789 -84.3153 234° Southwest 410 472 36,000  Level Atlanta Center
Tue 23:21:32 33.4139 -84.4269 235° Southwest 410 472 36,000  Level Atlanta Center
Tue 23:22:32 33.3486 -84.5361 234° Southwest 410 472 36,000  Level Atlanta Center
Tue 23:23:32 33.2878 -84.6378 234° Southwest 410 472 36,000  Level Atlanta Center
Tue 23:24:32 33.2244 -84.7467 235° Southwest 410 472 36,000  Level Atlanta Center
Tue 23:25:32 33.1592 -84.8553 234° Southwest 410 472 36,000  Level Atlanta Center
Tue 23:26:32 33.0978 -84.9686 237° Southwest 410 472 36,000  Level Atlanta Center
Tue 23:27:32 33.0364 -85.0844 238° Southwest 415 478 36,000  Level Atlanta Center
Tue 23:28:32 32.9706 -85.2025 236° Southwest 410 472 36,000  Level Atlanta Center
Tue 23:29:32 32.9069 -85.3131 236° Southwest 410 472 36,000  Level Atlanta Center
Tue 23:30:32 32.8431 -85.4258 236° Southwest 410 472 36,000  Level Atlanta Center
Tue 23:31:32 32.7811 -85.5386 237° Southwest 410 472 36,000  Level Atlanta Center
Tue 23:32:32 32.7192 -85.6511 237° Southwest 410 472 36,000  Level Atlanta Center
Tue 23:33:32 32.6550 -85.7633 236° Southwest 410 472 36,000  Level Atlanta Center
Tue 23:34:32 32.5928 -85.8781 237° Southwest 410 472 36,000  Level Atlanta Center
Tue 23:35:32 32.5306 -85.9900 237° Southwest 410 472 36,000  Level Atlanta Center
Tue 23:36:32 32.4597 -86.1117 235° Southwest 430 495 36,000  Level Atlanta Center
Tue 23:37:32 32.3950 -86.2281 237° Southwest 436 502 36,000  Level Atlanta Center
Tue 23:38:32 32.3303 -86.3444 237° Southwest 436 502 36,000  Level Atlanta Center
Tue 23:39:32 32.2697 -86.4633 239° Southwest 429 494 36,000  Level Atlanta Center
Tue 23:40:32 32.2025 -86.5794 236° Southwest 429 494 36,000  Level Atlanta Center
Tue 23:41:32 32.1375 -86.6978 237° Southwest 434 499 36,000  Level Atlanta Center
Tue 23:42:32 32.0706 -86.7986 232° Southwest 434 499 36,000  Level Atlanta Center
Tue 23:43:32 32.0033 -86.9167 236° Southwest 434 499 36,000  Level Atlanta Center
Tue 23:44:32 31.9381 -87.0294 236° Southwest 434 499 36,000  Level Atlanta Center
Tue 23:45:32 31.8703 -87.1469 236° Southwest 434 499 36,000  Level Atlanta Center
Tue 23:46:32 31.8028 -87.2594 235° Southwest 434 499 36,000  Level Atlanta Center
Tue 23:47:32 31.7325 -87.3889 237° Southwest 434 499 36,000  Level Atlanta Center
Tue 23:49:47 31.5881 -87.6303 235° Southwest 426 490 36,000  Level Houston Center
Tue 23:50:48 31.5211 -87.7444 235° Southwest 427 491 36,000  Level Houston Center
Tue 23:51:48 31.4533 -87.8589 235° Southwest 429 494 36,000  Level Houston Center
Tue 23:52:49 31.3858 -87.9742 236° Southwest 431 496 36,000  Level Houston Center
Tue 23:53:50 31.3189 -88.0892 236° Southwest 432 497 36,000  Level Houston Center
Tue 23:54:51 31.2386 -88.2267 236° Southwest 434 499 36,000  Level Houston Center
Tue 23:55:51 31.1678 -88.3375 233° Southwest 432 497 36,000  Level Houston Center
Tue 23:56:52 31.0989 -88.4547 236° Southwest 439 505 36,000  Level Houston Center
Tue 23:57:53 31.0289 -88.5697 235° Southwest 437 503 36,000 -246 Level Houston Center
Tue 23:58:54 30.9614 -88.6806 235° Southwest 439 505 35,500 -1,041 Descending Houston Center
Tue 23:59:54 30.8911 -88.7981 235° Southwest 444 511 33,900 -1,587 Descending Houston Center
Wed 00:00:55 30.8181 -88.9181 235° Southwest 456 525 32,300 -1,820 Descending Houston Center
Wed 00:01:56 30.7411 -89.0450 235° Southwest 460 529 30,200 -2,826 Descending Houston Center
Wed 00:02:56 30.6678 -89.1661 235° Southwest 458 527 26,600 -3,471 Descending Houston Center
Wed 00:03:57 30.5953 -89.2831 234° Southwest 449 517 23,200 -2,852 Descending Houston Center
Wed 00:04:58 30.5328 -89.3864 235° Southwest 396 456 20,800 -2,331 Descending Houston Center
Wed 00:05:58 30.4739 -89.4842 235° Southwest 372 428 18,500 -2,182 Descending Houston Center
Wed 00:06:59 30.4150 -89.5794 234° Southwest 366 421 16,400 -2,115 Descending Houston Center
Wed 00:08:00 30.3644 -89.6750 239° Southwest 350 403 14,200 -2,348 Descending Houston Center
Wed 00:08:31 30.3314 -89.7386 239° Southwest 335 386 12,800 -2,022 Descending Houston Center
Wed 00:09:32 30.2864 -89.8272 240° Southwest 322 371 11,100 -1,388 Descending Houston Center
Wed 00:10:32 30.2411 -89.9158 239° Southwest 318 366 10,000 -867 Descending Houston Center
Wed 00:11:02 30.2239 -89.9458 236° Southwest 300 345 9,800 -1,433 Descending Houston Center
Wed 00:11:39 30.1981 -90.0019 242° Southwest 263 303 8,400 -2,110 Descending Houston Center
Wed 00:12:33 30.1794 -90.0703 253° West 261 300 6,600 -1,786 Descending Houston Center
Wed 00:13:03 30.1744 -90.1056 261° West 264 304 5,900 -1,279 Descending Houston Center
Wed 00:13:34 30.1675 -90.1547 261° West 236 272 5,300 -1,116 Descending Houston Center
Wed 00:14:29 30.1350 -90.1922 225° Southwest 197 227 4,300 -1,333 Descending Houston Center
Wed 00:15:04 30.1142 -90.2100 216° Southwest 203 234 3,300 -1,875 Descending Houston Center
Wed 00:16:05 30.0664 -90.2275 198° South 186 214 1,300 -1,388 Descending Houston Center
Wed 00:17:05 30.0264 -90.2392 194° South 169 194 500 -446 Descending Houston Center
Wed 00:18:06 29.9956 -90.2478 194° South 159 183 400 -98 Descending Houston Center
Wed 00:20:00 29.9833 -90.2500 235° Southwest  Level FlightAware Approximate
Wed 00:27:00 29.9934 -90.2580 235° Southwest  Level Estimated

Login

Don't have an account? Register now (free) for customized features, flight alerts, and more!